UATG/GUW METAR and TAF weather

Enter ICAO airport designator
Station Type Date Time Source
UATG METAR 2019/10/21 04:30 UTC NOAA

UATG 210430Z 09005MPS CAVOK 05/M02 Q1030 R14/CLRD70 NOSIG RMK QFE774/1033


Station Type Date Time Source
UATG Decoded METAR 2019/10/21 04:30 UTC NOAA

Station name not available
Oct 21, 2019 - 12:30 AM EDT / 2019.10.21 0430 UTC
Wind: from the E (090 degrees) at 11 MPH (10 KT):0
Visibility: greater than 7 mile(s):0
Temperature: 41 F (5 C)
Dew Point: 28 F (-2 C)
Relative Humidity: 60%
Pressure (altimeter): 30.42 in. Hg (1030 hPa)
ob: UATG 210430Z 09005MPS CAVOK 05/M02 Q1030 R14/CLRD70 NOSIG RMK QFE774/1033
cycle: 4

Station Type Date Time Source
UATG TAF 2019/10/20 18:21 UTC NOAA

TAF UATG 201702Z 2018/2118 05005MPS 9999 BKN033 TX15/2111Z TN02/2103Z
BECMG 2019/2021 3100 BR BKN011
TEMPO 2021/2104 0300 FG VV001
BECMG 2106/2108 9999 NSW

Example: see airport list